sensor_id;sensor_type;location;lat;lon;timestamp;P1;durP1;ratioP1;P2;durP2;ratioP2
3789;SDS011;1910;49.042;9.028;2023-02-28T00:01:16;5.45;;;3.15;;
3789;SDS011;1910;49.042;9.028;2023-02-28T00:03:42;11.30;;;3.53;;
3789;SDS011;1910;49.042;9.028;2023-02-28T00:06:08;4.47;;;4.07;;
3789;SDS011;1910;49.042;9.028;2023-02-28T00:08:35;4.70;;;3.53;;
3789;SDS011;1910;49.042;9.028;2023-02-28T00:11:05;6.30;;;4.00;;
3789;SDS011;1910;49.042;9.028;2023-02-28T00:13:33;6.75;;;3.38;;
3789;SDS011;1910;49.042;9.028;2023-02-28T00:16:03;5.15;;;3.45;;
3789;SDS011;1910;49.042;9.028;2023-02-28T00:18:30;4.63;;;3.25;;
3789;SDS011;1910;49.042;9.028;2023-02-28T00:20:56;4.90;;;3.60;;
3789;SDS011;1910;49.042;9.028;2023-02-28T00:23:23;8.20;;;3.65;;
3789;SDS011;1910;49.042;9.028;2023-02-28T00:25:48;5.73;;;3.43;;
3789;SDS011;1910;49.042;9.028;2023-02-28T00:28:15;7.20;;;3.88;;
3789;SDS011;1910;49.042;9.028;2023-02-28T00:30:40;8.57;;;4.70;;
3789;SDS011;1910;49.042;9.028;2023-02-28T00:33:06;5.70;;;4.30;;
3789;SDS011;1910;49.042;9.028;2023-02-28T00:35:31;5.30;;;3.70;;
3789;SDS011;1910;49.042;9.028;2023-02-28T00:37:57;6.43;;;3.93;;
3789;SDS011;1910;49.042;9.028;2023-02-28T00:40:24;5.50;;;4.43;;
3789;SDS011;1910;49.042;9.028;2023-02-28T00:42:50;6.95;;;3.70;;
3789;SDS011;1910;49.042;9.028;2023-02-28T00:45:15;13.83;;;4.57;;
3789;SDS011;1910;49.042;9.028;2023-02-28T00:47:41;10.43;;;4.37;;
3789;SDS011;1910;49.042;9.028;2023-02-28T00:50:06;4.80;;;2.93;;
3789;SDS011;1910;49.042;9.028;2023-02-28T00:52:34;3.35;;;2.75;;
3789;SDS011;1910;49.042;9.028;2023-02-28T00:54:59;4.50;;;3.23;;
3789;SDS011;1910;49.042;9.028;2023-02-28T00:57:25;3.10;;;2.60;;
3789;SDS011;1910;49.042;9.028;2023-02-28T00:59:51;10.43;;;4.50;;
3789;SDS011;1910;49.042;9.028;2023-02-28T01:02:19;6.97;;;3.88;;
3789;SDS011;1910;49.042;9.028;2023-02-28T01:04:46;5.55;;;3.75;;
3789;SDS011;1910;49.042;9.028;2023-02-28T01:07:12;5.35;;;4.05;;
3789;SDS011;1910;49.042;9.028;2023-02-28T01:09:40;7.47;;;4.45;;
3789;SDS011;1910;49.042;9.028;2023-02-28T01:12:06;6.68;;;4.07;;
3789;SDS011;1910;49.042;9.028;2023-02-28T01:14:33;4.65;;;4.25;;
3789;SDS011;1910;49.042;9.028;2023-02-28T01:16:59;4.82;;;3.78;;
3789;SDS011;1910;49.042;9.028;2023-02-28T01:19:25;7.00;;;3.45;;
3789;SDS011;1910;49.042;9.028;2023-02-28T01:21:51;6.10;;;3.60;;
3789;SDS011;1910;49.042;9.028;2023-02-28T01:24:16;6.77;;;4.73;;
3789;SDS011;1910;49.042;9.028;2023-02-28T01:26:42;7.17;;;5.10;;
3789;SDS011;1910;49.042;9.028;2023-02-28T01:29:09;22.73;;;11.13;;
3789;SDS011;1910;49.042;9.028;2023-02-28T01:31:35;10.38;;;6.10;;
3789;SDS011;1910;49.042;9.028;2023-02-28T01:34:00;25.50;;;14.07;;
3789;SDS011;1910;49.042;9.028;2023-02-28T01:36:31;15.82;;;8.23;;
3789;SDS011;1910;49.042;9.028;2023-02-28T01:38:56;13.15;;;10.65;;
3789;SDS011;1910;49.042;9.028;2023-02-28T01:41:26;11.43;;;6.17;;
3789;SDS011;1910;49.042;9.028;2023-02-28T01:44:02;6.55;;;4.65;;
3789;SDS011;1910;49.042;9.028;2023-02-28T01:46:33;5.35;;;3.83;;
3789;SDS011;1910;49.042;9.028;2023-02-28T01:49:02;8.98;;;4.82;;
3789;SDS011;1910;49.042;9.028;2023-02-28T01:51:47;7.82;;;4.85;;
3789;SDS011;1910;49.042;9.028;2023-02-28T01:54:24;6.13;;;4.00;;
3789;SDS011;1910;49.042;9.028;2023-02-28T01:56:55;10.68;;;5.35;;
3789;SDS011;1910;49.042;9.028;2023-02-28T01:59:31;7.18;;;5.80;;
3789;SDS011;1910;49.042;9.028;2023-02-28T02:02:02;6.32;;;4.50;;
3789;SDS011;1910;49.042;9.028;2023-02-28T02:04:31;10.90;;;4.05;;
3789;SDS011;1910;49.042;9.028;2023-02-28T02:07:01;8.18;;;5.32;;
3789;SDS011;1910;49.042;9.028;2023-02-28T02:09:27;17.45;;;4.93;;
3789;SDS011;1910;49.042;9.028;2023-02-28T02:11:53;6.47;;;4.57;;
3789;SDS011;1910;49.042;9.028;2023-02-28T02:19:46;6.72;;;4.10;;
3789;SDS011;1910;49.042;9.028;2023-02-28T02:26:06;7.75;;;5.47;;
3789;SDS011;1910;49.042;9.028;2023-02-28T02:31:32;7.32;;;4.53;;
3789;SDS011;1910;49.042;9.028;2023-02-28T02:34:37;5.10;;;3.47;;
3789;SDS011;1910;49.042;9.028;2023-02-28T02:37:10;7.28;;;3.67;;
3789;SDS011;1910;49.042;9.028;2023-02-28T02:40:17;5.32;;;3.72;;
3789;SDS011;1910;49.042;9.028;2023-02-28T02:42:47;19.40;;;4.70;;
3789;SDS011;1910;49.042;9.028;2023-02-28T02:48:14;7.50;;;4.13;;
3789;SDS011;1910;49.042;9.028;2023-02-28T02:50:43;4.82;;;3.72;;
3789;SDS011;1910;49.042;9.028;2023-02-28T02:53:12;12.98;;;6.05;;
3789;SDS011;1910;49.042;9.028;2023-02-28T02:55:41;11.00;;;5.18;;
3789;SDS011;1910;49.042;9.028;2023-02-28T02:58:16;5.60;;;4.15;;
3789;SDS011;1910;49.042;9.028;2023-02-28T03:00:46;8.82;;;4.55;;
3789;SDS011;1910;49.042;9.028;2023-02-28T03:03:17;9.27;;;4.80;;
3789;SDS011;1910;49.042;9.028;2023-02-28T03:05:46;5.28;;;3.53;;
3789;SDS011;1910;49.042;9.028;2023-02-28T03:08:14;7.90;;;4.57;;
3789;SDS011;1910;49.042;9.028;2023-02-28T03:10:41;6.25;;;4.88;;
3789;SDS011;1910;49.042;9.028;2023-02-28T03:13:11;5.00;;;3.85;;
3789;SDS011;1910;49.042;9.028;2023-02-28T03:16:02;4.30;;;3.90;;
3789;SDS011;1910;49.042;9.028;2023-02-28T03:18:51;5.65;;;4.13;;
3789;SDS011;1910;49.042;9.028;2023-02-28T03:22:01;7.43;;;4.70;;
3789;SDS011;1910;49.042;9.028;2023-02-28T03:24:41;6.15;;;4.75;;
3789;SDS011;1910;49.042;9.028;2023-02-28T03:30:03;7.78;;;4.47;;
3789;SDS011;1910;49.042;9.028;2023-02-28T03:32:37;11.55;;;4.78;;
3789;SDS011;1910;49.042;9.028;2023-02-28T03:35:09;7.45;;;4.70;;
3789;SDS011;1910;49.042;9.028;2023-02-28T03:37:47;7.88;;;4.65;;
3789;SDS011;1910;49.042;9.028;2023-02-28T03:40:16;10.73;;;4.38;;
3789;SDS011;1910;49.042;9.028;2023-02-28T03:42:45;8.32;;;4.18;;
3789;SDS011;1910;49.042;9.028;2023-02-28T03:45:19;5.47;;;3.72;;
3789;SDS011;1910;49.042;9.028;2023-02-28T03:47:51;4.90;;;3.70;;
3789;SDS011;1910;49.042;9.028;2023-02-28T03:50:24;5.68;;;4.38;;
3789;SDS011;1910;49.042;9.028;2023-02-28T03:56:06;6.20;;;4.28;;
3789;SDS011;1910;49.042;9.028;2023-02-28T03:58:41;6.90;;;3.63;;
3789;SDS011;1910;49.042;9.028;2023-02-28T04:01:26;7.68;;;4.72;;
3789;SDS011;1910;49.042;9.028;2023-02-28T04:04:08;10.00;;;5.00;;
3789;SDS011;1910;49.042;9.028;2023-02-28T04:06:34;8.73;;;4.30;;
3789;SDS011;1910;49.042;9.028;2023-02-28T04:09:08;10.00;;;5.10;;
3789;SDS011;1910;49.042;9.028;2023-02-28T04:11:37;6.25;;;5.05;;
3789;SDS011;1910;49.042;9.028;2023-02-28T04:14:05;6.63;;;4.85;;
3789;SDS011;1910;49.042;9.028;2023-02-28T04:16:32;9.93;;;5.45;;
3789;SDS011;1910;49.042;9.028;2023-02-28T04:18:58;8.57;;;4.93;;
3789;SDS011;1910;49.042;9.028;2023-02-28T04:21:31;7.03;;;4.85;;
3789;SDS011;1910;49.042;9.028;2023-02-28T04:23:58;10.73;;;5.55;;
3789;SDS011;1910;49.042;9.028;2023-02-28T04:26:27;12.20;;;6.18;;
3789;SDS011;1910;49.042;9.028;2023-02-28T04:28:54;6.18;;;4.35;;
3789;SDS011;1910;49.042;9.028;2023-02-28T04:31:20;6.72;;;4.72;;
3789;SDS011;1910;49.042;9.028;2023-02-28T04:33:46;13.33;;;4.80;;
3789;SDS011;1910;49.042;9.028;2023-02-28T04:36:12;8.13;;;4.67;;
3789;SDS011;1910;49.042;9.028;2023-02-28T04:38:39;7.45;;;5.18;;
3789;SDS011;1910;49.042;9.028;2023-02-28T04:41:04;9.73;;;4.60;;
3789;SDS011;1910;49.042;9.028;2023-02-28T04:43:31;8.37;;;4.03;;
3789;SDS011;1910;49.042;9.028;2023-02-28T04:45:57;7.90;;;5.38;;
3789;SDS011;1910;49.042;9.028;2023-02-28T04:48:26;10.70;;;4.57;;
3789;SDS011;1910;49.042;9.028;2023-02-28T04:50:53;8.45;;;5.13;;
3789;SDS011;1910;49.042;9.028;2023-02-28T04:53:19;8.07;;;5.63;;
3789;SDS011;1910;49.042;9.028;2023-02-28T04:55:45;8.98;;;4.60;;
3789;SDS011;1910;49.042;9.028;2023-02-28T04:58:11;9.80;;;5.27;;
3789;SDS011;1910;49.042;9.028;2023-02-28T05:00:39;18.55;;;5.57;;
3789;SDS011;1910;49.042;9.028;2023-02-28T05:03:05;8.03;;;5.77;;
3789;SDS011;1910;49.042;9.028;2023-02-28T05:05:31;9.10;;;6.17;;
3789;SDS011;1910;49.042;9.028;2023-02-28T05:07:56;9.97;;;5.40;;
3789;SDS011;1910;49.042;9.028;2023-02-28T05:10:22;6.83;;;4.80;;
3789;SDS011;1910;49.042;9.028;2023-02-28T05:12:48;12.00;;;5.00;;
3789;SDS011;1910;49.042;9.028;2023-02-28T05:15:14;11.77;;;5.20;;
3789;SDS011;1910;49.042;9.028;2023-02-28T05:17:41;9.10;;;4.75;;
3789;SDS011;1910;49.042;9.028;2023-02-28T05:20:07;5.30;;;4.40;;
3789;SDS011;1910;49.042;9.028;2023-02-28T05:22:35;8.88;;;4.72;;
3789;SDS011;1910;49.042;9.028;2023-02-28T05:25:02;9.93;;;5.30;;
3789;SDS011;1910;49.042;9.028;2023-02-28T05:27:28;9.77;;;5.32;;
3789;SDS011;1910;49.042;9.028;2023-02-28T05:29:54;6.20;;;4.15;;
3789;SDS011;1910;49.042;9.028;2023-02-28T05:32:20;9.57;;;4.50;;
3789;SDS011;1910;49.042;9.028;2023-02-28T05:34:46;6.57;;;5.10;;
3789;SDS011;1910;49.042;9.028;2023-02-28T05:37:12;11.73;;;5.83;;
3789;SDS011;1910;49.042;9.028;2023-02-28T05:39:38;6.47;;;4.00;;
3789;SDS011;1910;49.042;9.028;2023-02-28T05:42:04;11.50;;;5.73;;
3789;SDS011;1910;49.042;9.028;2023-02-28T05:44:30;15.57;;;7.80;;
3789;SDS011;1910;49.042;9.028;2023-02-28T05:46:56;8.40;;;5.17;;
3789;SDS011;1910;49.042;9.028;2023-02-28T05:49:21;7.07;;;4.97;;
3789;SDS011;1910;49.042;9.028;2023-02-28T05:51:50;8.70;;;6.10;;
3789;SDS011;1910;49.042;9.028;2023-02-28T05:54:16;15.10;;;9.98;;
3789;SDS011;1910;49.042;9.028;2023-02-28T05:56:42;11.27;;;5.90;;
3789;SDS011;1910;49.042;9.028;2023-02-28T05:59:10;7.07;;;4.60;;
3789;SDS011;1910;49.042;9.028;2023-02-28T06:01:38;14.23;;;6.38;;
3789;SDS011;1910;49.042;9.028;2023-02-28T06:04:05;11.18;;;6.63;;
3789;SDS011;1910;49.042;9.028;2023-02-28T06:06:32;9.82;;;6.28;;
3789;SDS011;1910;49.042;9.028;2023-02-28T06:09:02;13.75;;;8.45;;
3789;SDS011;1910;49.042;9.028;2023-02-28T06:11:29;7.85;;;5.68;;
3789;SDS011;1910;49.042;9.028;2023-02-28T06:13:58;7.10;;;5.30;;
3789;SDS011;1910;49.042;9.028;2023-02-28T06:16:26;14.57;;;7.70;;
3789;SDS011;1910;49.042;9.028;2023-02-28T06:18:52;10.27;;;6.03;;
3789;SDS011;1910;49.042;9.028;2023-02-28T06:21:23;9.25;;;5.70;;
3789;SDS011;1910;49.042;9.028;2023-02-28T06:23:49;10.00;;;5.15;;
3789;SDS011;1910;49.042;9.028;2023-02-28T06:26:15;7.50;;;4.90;;
3789;SDS011;1910;49.042;9.028;2023-02-28T06:28:41;9.95;;;4.93;;
3789;SDS011;1910;49.042;9.028;2023-02-28T06:31:08;11.40;;;5.72;;
3789;SDS011;1910;49.042;9.028;2023-02-28T06:33:36;10.07;;;5.00;;
3789;SDS011;1910;49.042;9.028;2023-02-28T06:36:03;9.25;;;6.38;;
3789;SDS011;1910;49.042;9.028;2023-02-28T06:38:30;7.25;;;4.70;;
3789;SDS011;1910;49.042;9.028;2023-02-28T06:40:57;9.00;;;5.47;;
3789;SDS011;1910;49.042;9.028;2023-02-28T06:43:24;7.95;;;5.10;;
3789;SDS011;1910;49.042;9.028;2023-02-28T06:45:50;8.38;;;5.45;;
3789;SDS011;1910;49.042;9.028;2023-02-28T06:48:26;13.40;;;6.20;;
3789;SDS011;1910;49.042;9.028;2023-02-28T06:50:52;4.95;;;4.47;;
3789;SDS011;1910;49.042;9.028;2023-02-28T06:53:25;6.60;;;3.67;;
3789;SDS011;1910;49.042;9.028;2023-02-28T06:55:51;9.90;;;5.83;;
3789;SDS011;1910;49.042;9.028;2023-02-28T06:58:16;12.20;;;6.57;;
3789;SDS011;1910;49.042;9.028;2023-02-28T07:00:45;10.70;;;5.50;;
3789;SDS011;1910;49.042;9.028;2023-02-28T07:03:14;7.90;;;5.20;;
3789;SDS011;1910;49.042;9.028;2023-02-28T07:05:40;10.53;;;6.37;;
3789;SDS011;1910;49.042;9.028;2023-02-28T07:08:06;12.40;;;6.93;;
3789;SDS011;1910;49.042;9.028;2023-02-28T07:10:32;12.47;;;6.17;;
3789;SDS011;1910;49.042;9.028;2023-02-28T07:12:58;11.20;;;6.63;;
3789;SDS011;1910;49.042;9.028;2023-02-28T07:15:24;9.25;;;5.40;;
3789;SDS011;1910;49.042;9.028;2023-02-28T07:17:50;11.80;;;6.70;;
3789;SDS011;1910;49.042;9.028;2023-02-28T07:20:16;14.90;;;6.47;;
3789;SDS011;1910;49.042;9.028;2023-02-28T07:22:42;15.15;;;7.82;;
3789;SDS011;1910;49.042;9.028;2023-02-28T07:25:07;13.80;;;6.50;;
3789;SDS011;1910;49.042;9.028;2023-02-28T07:27:34;8.63;;;6.63;;
3789;SDS011;1910;49.042;9.028;2023-02-28T07:29:59;7.03;;;2.97;;
3789;SDS011;1910;49.042;9.028;2023-02-28T07:32:28;8.90;;;7.05;;
3789;SDS011;1910;49.042;9.028;2023-02-28T07:34:54;10.90;;;6.13;;
3789;SDS011;1910;49.042;9.028;2023-02-28T07:37:19;18.80;;;5.80;;
3789;SDS011;1910;49.042;9.028;2023-02-28T07:39:45;12.60;;;5.10;;
3789;SDS011;1910;49.042;9.028;2023-02-28T07:42:11;7.90;;;4.50;;
3789;SDS011;1910;49.042;9.028;2023-02-28T07:44:38;9.73;;;6.18;;
3789;SDS011;1910;49.042;9.028;2023-02-28T07:47:09;9.80;;;5.82;;
3789;SDS011;1910;49.042;9.028;2023-02-28T07:49:35;6.93;;;5.25;;
3789;SDS011;1910;49.042;9.028;2023-02-28T07:52:02;11.40;;;6.15;;
3789;SDS011;1910;49.042;9.028;2023-02-28T07:54:29;11.20;;;7.00;;
3789;SDS011;1910;49.042;9.028;2023-02-28T07:56:55;11.50;;;5.93;;
3789;SDS011;1910;49.042;9.028;2023-02-28T07:59:20;9.77;;;5.00;;
3789;SDS011;1910;49.042;9.028;2023-02-28T08:01:46;7.80;;;5.67;;
3789;SDS011;1910;49.042;9.028;2023-02-28T08:04:11;10.73;;;6.20;;
3789;SDS011;1910;49.042;9.028;2023-02-28T08:06:37;13.83;;;5.93;;
3789;SDS011;1910;49.042;9.028;2023-02-28T08:09:02;10.40;;;6.13;;
3789;SDS011;1910;49.042;9.028;2023-02-28T08:11:28;13.23;;;7.00;;
3789;SDS011;1910;49.042;9.028;2023-02-28T08:13:54;14.23;;;6.93;;
3789;SDS011;1910;49.042;9.028;2023-02-28T08:16:19;9.30;;;7.50;;
3789;SDS011;1910;49.042;9.028;2023-02-28T08:18:47;13.23;;;7.80;;
3789;SDS011;1910;49.042;9.028;2023-02-28T08:21:14;12.40;;;7.78;;
3789;SDS011;1910;49.042;9.028;2023-02-28T08:23:40;11.03;;;6.07;;
3789;SDS011;1910;49.042;9.028;2023-02-28T08:26:06;10.00;;;6.30;;
3789;SDS011;1910;49.042;9.028;2023-02-28T08:28:32;10.50;;;6.53;;
3789;SDS011;1910;49.042;9.028;2023-02-28T08:30:57;6.83;;;4.40;;
3789;SDS011;1910;49.042;9.028;2023-02-28T08:33:23;12.47;;;6.80;;
3789;SDS011;1910;49.042;9.028;2023-02-28T08:35:52;11.07;;;6.30;;
3789;SDS011;1910;49.042;9.028;2023-02-28T08:38:21;11.82;;;7.65;;
3789;SDS011;1910;49.042;9.028;2023-02-28T08:40:48;15.50;;;7.07;;
3789;SDS011;1910;49.042;9.028;2023-02-28T08:43:14;11.57;;;6.70;;
3789;SDS011;1910;49.042;9.028;2023-02-28T08:45:39;10.43;;;6.60;;
3789;SDS011;1910;49.042;9.028;2023-02-28T08:48:05;9.63;;;6.07;;
3789;SDS011;1910;49.042;9.028;2023-02-28T08:50:31;8.10;;;5.57;;
3789;SDS011;1910;49.042;9.028;2023-02-28T08:52:56;7.90;;;5.97;;
3789;SDS011;1910;49.042;9.028;2023-02-28T08:55:23;8.50;;;6.37;;
3789;SDS011;1910;49.042;9.028;2023-02-28T08:57:48;13.82;;;7.10;;
3789;SDS011;1910;49.042;9.028;2023-02-28T09:00:14;9.40;;;6.27;;
3789;SDS011;1910;49.042;9.028;2023-02-28T09:02:40;10.70;;;6.87;;
3789;SDS011;1910;49.042;9.028;2023-02-28T09:05:07;13.20;;;7.40;;
3789;SDS011;1910;49.042;9.028;2023-02-28T09:07:33;15.40;;;8.13;;
3789;SDS011;1910;49.042;9.028;2023-02-28T09:09:59;22.03;;;10.30;;
3789;SDS011;1910;49.042;9.028;2023-02-28T09:12:25;21.43;;;6.43;;
3789;SDS011;1910;49.042;9.028;2023-02-28T09:14:52;12.68;;;7.30;;
3789;SDS011;1910;49.042;9.028;2023-02-28T09:17:19;10.10;;;7.25;;
3789;SDS011;1910;49.042;9.028;2023-02-28T09:19:45;11.32;;;7.80;;
3789;SDS011;1910;49.042;9.028;2023-02-28T09:22:12;10.73;;;7.70;;
3789;SDS011;1910;49.042;9.028;2023-02-28T09:24:38;8.87;;;7.10;;
3789;SDS011;1910;49.042;9.028;2023-02-28T09:27:04;10.63;;;6.97;;
3789;SDS011;1910;49.042;9.028;2023-02-28T09:29:30;11.20;;;7.00;;
3789;SDS011;1910;49.042;9.028;2023-02-28T09:31:56;12.05;;;6.68;;
3789;SDS011;1910;49.042;9.028;2023-02-28T09:34:23;12.55;;;7.07;;
3789;SDS011;1910;49.042;9.028;2023-02-28T09:36:49;18.60;;;8.23;;
3789;SDS011;1910;49.042;9.028;2023-02-28T09:39:19;9.80;;;6.72;;
3789;SDS011;1910;49.042;9.028;2023-02-28T09:41:47;12.35;;;8.05;;
3789;SDS011;1910;49.042;9.028;2023-02-28T09:45:02;12.13;;;7.20;;
3789;SDS011;1910;49.042;9.028;2023-02-28T09:47:12;7.03;;;6.30;;
3789;SDS011;1910;49.042;9.028;2023-02-28T09:49:42;13.55;;;8.35;;
3789;SDS011;1910;49.042;9.028;2023-02-28T09:52:30;10.23;;;6.72;;
3789;SDS011;1910;49.042;9.028;2023-02-28T09:55:04;16.25;;;10.13;;
3789;SDS011;1910;49.042;9.028;2023-02-28T09:57:43;26.05;;;10.77;;
3789;SDS011;1910;49.042;9.028;2023-02-28T10:00:18;34.83;;;21.45;;
3789;SDS011;1910;49.042;9.028;2023-02-28T10:05:52;12.73;;;6.97;;
3789;SDS011;1910;49.042;9.028;2023-02-28T10:08:28;12.05;;;7.90;;
3789;SDS011;1910;49.042;9.028;2023-02-28T10:10:58;11.15;;;7.50;;
3789;SDS011;1910;49.042;9.028;2023-02-28T10:16:23;8.95;;;6.63;;
3789;SDS011;1910;49.042;9.028;2023-02-28T10:18:58;28.35;;;15.32;;
3789;SDS011;1910;49.042;9.028;2023-02-28T10:21:36;14.15;;;7.30;;
3789;SDS011;1910;49.042;9.028;2023-02-28T10:24:19;16.25;;;8.88;;
3789;SDS011;1910;49.042;9.028;2023-02-28T10:27:40;14.38;;;8.02;;
3789;SDS011;1910;49.042;9.028;2023-02-28T10:29:49;12.32;;;8.23;;
3789;SDS011;1910;49.042;9.028;2023-02-28T10:32:20;15.98;;;8.15;;
3789;SDS011;1910;49.042;9.028;2023-02-28T10:34:55;13.15;;;8.00;;
3789;SDS011;1910;49.042;9.028;2023-02-28T10:37:29;14.45;;;7.80;;
3789;SDS011;1910;49.042;9.028;2023-02-28T10:39:56;10.80;;;7.10;;
3789;SDS011;1910;49.042;9.028;2023-02-28T10:42:26;19.30;;;8.43;;
3789;SDS011;1910;49.042;9.028;2023-02-28T10:47:34;11.65;;;6.20;;
3789;SDS011;1910;49.042;9.028;2023-02-28T10:52:53;9.00;;;6.72;;
3789;SDS011;1910;49.042;9.028;2023-02-28T10:55:21;11.98;;;6.72;;
3789;SDS011;1910;49.042;9.028;2023-02-28T10:57:49;10.60;;;7.80;;
3789;SDS011;1910;49.042;9.028;2023-02-28T11:00:17;12.77;;;8.40;;
3789;SDS011;1910;49.042;9.028;2023-02-28T11:02:46;14.25;;;8.55;;
3789;SDS011;1910;49.042;9.028;2023-02-28T11:07:54;13.60;;;8.80;;
3789;SDS011;1910;49.042;9.028;2023-02-28T11:10:38;10.27;;;6.68;;
3789;SDS011;1910;49.042;9.028;2023-02-28T11:13:04;10.23;;;6.67;;
3789;SDS011;1910;49.042;9.028;2023-02-28T11:15:31;17.60;;;7.55;;
3789;SDS011;1910;49.042;9.028;2023-02-28T11:18:00;14.23;;;8.80;;
3789;SDS011;1910;49.042;9.028;2023-02-28T11:20:47;10.55;;;7.78;;
3789;SDS011;1910;49.042;9.028;2023-02-28T11:23:15;10.90;;;6.70;;
3789;SDS011;1910;49.042;9.028;2023-02-28T11:25:45;13.18;;;7.30;;
3789;SDS011;1910;49.042;9.028;2023-02-28T11:33:43;16.13;;;8.65;;
3789;SDS011;1910;49.042;9.028;2023-02-28T11:36:15;13.13;;;7.35;;
3789;SDS011;1910;49.042;9.028;2023-02-28T11:38:49;15.93;;;7.38;;
3789;SDS011;1910;49.042;9.028;2023-02-28T11:41:22;18.15;;;8.15;;
3789;SDS011;1910;49.042;9.028;2023-02-28T11:45:14;13.35;;;8.18;;
3789;SDS011;1910;49.042;9.028;2023-02-28T11:47:32;12.48;;;8.48;;
3789;SDS011;1910;49.042;9.028;2023-02-28T11:53:57;13.05;;;8.20;;
3789;SDS011;1910;49.042;9.028;2023-02-28T11:59:21;15.52;;;8.75;;
3789;SDS011;1910;49.042;9.028;2023-02-28T12:02:20;11.65;;;7.78;;
3789;SDS011;1910;49.042;9.028;2023-02-28T12:11:02;19.98;;;9.70;;
3789;SDS011;1910;49.042;9.028;2023-02-28T12:16:40;12.52;;;6.72;;
3789;SDS011;1910;49.042;9.028;2023-02-28T12:22:03;14.17;;;7.23;;
3789;SDS011;1910;49.042;9.028;2023-02-28T12:27:54;10.25;;;6.45;;
3789;SDS011;1910;49.042;9.028;2023-02-28T12:33:11;17.33;;;7.78;;
3789;SDS011;1910;49.042;9.028;2023-02-28T12:35:56;11.98;;;9.43;;
3789;SDS011;1910;49.042;9.028;2023-02-28T12:38:34;13.05;;;7.88;;
3789;SDS011;1910;49.042;9.028;2023-02-28T12:41:14;14.27;;;9.30;;
3789;SDS011;1910;49.042;9.028;2023-02-28T12:43:48;17.02;;;8.75;;
3789;SDS011;1910;49.042;9.028;2023-02-28T12:46:22;16.30;;;10.00;;
3789;SDS011;1910;49.042;9.028;2023-02-28T12:48:55;15.88;;;8.18;;
3789;SDS011;1910;49.042;9.028;2023-02-28T12:51:22;13.13;;;9.25;;
3789;SDS011;1910;49.042;9.028;2023-02-28T13:02:00;12.70;;;7.95;;
3789;SDS011;1910;49.042;9.028;2023-02-28T13:04:47;20.23;;;8.25;;
3789;SDS011;1910;49.042;9.028;2023-02-28T13:07:41;23.85;;;8.52;;
3789;SDS011;1910;49.042;9.028;2023-02-28T13:10:19;17.73;;;9.38;;
3789;SDS011;1910;49.042;9.028;2023-02-28T13:12:52;14.30;;;9.30;;
3789;SDS011;1910;49.042;9.028;2023-02-28T13:17:51;15.38;;;9.05;;
3789;SDS011;1910;49.042;9.028;2023-02-28T13:20:20;11.70;;;7.40;;
3789;SDS011;1910;49.042;9.028;2023-02-28T13:22:51;12.85;;;8.65;;
3789;SDS011;1910;49.042;9.028;2023-02-28T13:27:48;10.73;;;7.38;;
3789;SDS011;1910;49.042;9.028;2023-02-28T13:33:36;13.38;;;8.77;;
3789;SDS011;1910;49.042;9.028;2023-02-28T13:36:25;14.10;;;9.93;;
3789;SDS011;1910;49.042;9.028;2023-02-28T13:38:55;17.33;;;9.18;;
3789;SDS011;1910;49.042;9.028;2023-02-28T13:44:16;13.10;;;8.82;;
3789;SDS011;1910;49.042;9.028;2023-02-28T14:06:22;16.02;;;8.93;;
3789;SDS011;1910;49.042;9.028;2023-02-28T14:11:48;13.38;;;8.73;;
3789;SDS011;1910;49.042;9.028;2023-02-28T14:17:05;14.45;;;8.98;;
3789;SDS011;1910;49.042;9.028;2023-02-28T14:19:37;16.70;;;9.65;;
3789;SDS011;1910;49.042;9.028;2023-02-28T14:28:06;16.73;;;10.18;;
3789;SDS011;1910;49.042;9.028;2023-02-28T14:30:52;15.70;;;9.35;;
3789;SDS011;1910;49.042;9.028;2023-02-28T14:33:59;17.55;;;8.50;;
3789;SDS011;1910;49.042;9.028;2023-02-28T14:36:39;13.70;;;9.80;;
3789;SDS011;1910;49.042;9.028;2023-02-28T14:41:42;16.63;;;9.95;;
3789;SDS011;1910;49.042;9.028;2023-02-28T14:44:16;12.88;;;9.57;;
3789;SDS011;1910;49.042;9.028;2023-02-28T14:46:48;12.15;;;7.05;;
3789;SDS011;1910;49.042;9.028;2023-02-28T14:49:28;12.60;;;9.70;;
3789;SDS011;1910;49.042;9.028;2023-02-28T14:52:21;16.00;;;9.88;;
3789;SDS011;1910;49.042;9.028;2023-02-28T14:55:23;30.67;;;9.50;;
3789;SDS011;1910;49.042;9.028;2023-02-28T14:57:50;14.60;;;8.82;;
3789;SDS011;1910;49.042;9.028;2023-02-28T15:00:25;14.18;;;9.32;;
3789;SDS011;1910;49.042;9.028;2023-02-28T15:02:53;15.85;;;9.35;;
3789;SDS011;1910;49.042;9.028;2023-02-28T15:05:29;20.15;;;9.55;;
3789;SDS011;1910;49.042;9.028;2023-02-28T15:08:11;17.15;;;8.50;;
3789;SDS011;1910;49.042;9.028;2023-02-28T15:10:42;16.42;;;9.77;;
3789;SDS011;1910;49.042;9.028;2023-02-28T15:13:20;19.50;;;10.00;;
3789;SDS011;1910;49.042;9.028;2023-02-28T15:18:24;17.67;;;9.80;;
3789;SDS011;1910;49.042;9.028;2023-02-28T15:21:07;15.80;;;8.32;;
3789;SDS011;1910;49.042;9.028;2023-02-28T15:23:38;12.57;;;8.25;;
3789;SDS011;1910;49.042;9.028;2023-02-28T15:26:06;15.45;;;8.82;;
3789;SDS011;1910;49.042;9.028;2023-02-28T15:28:35;14.98;;;9.15;;
3789;SDS011;1910;49.042;9.028;2023-02-28T15:31:02;18.23;;;9.50;;
3789;SDS011;1910;49.042;9.028;2023-02-28T15:33:47;15.38;;;9.38;;
3789;SDS011;1910;49.042;9.028;2023-02-28T15:36:21;17.20;;;10.68;;
3789;SDS011;1910;49.042;9.028;2023-02-28T15:38:52;12.05;;;8.95;;
3789;SDS011;1910;49.042;9.028;2023-02-28T15:41:23;15.75;;;8.60;;
3789;SDS011;1910;49.042;9.028;2023-02-28T15:44:16;15.63;;;9.25;;
3789;SDS011;1910;49.042;9.028;2023-02-28T15:46:57;13.77;;;8.38;;
3789;SDS011;1910;49.042;9.028;2023-02-28T15:49:23;19.85;;;8.57;;
3789;SDS011;1910;49.042;9.028;2023-02-28T15:51:49;14.00;;;9.43;;
3789;SDS011;1910;49.042;9.028;2023-02-28T15:54:22;17.05;;;9.63;;
3789;SDS011;1910;49.042;9.028;2023-02-28T15:56:50;17.33;;;11.27;;
3789;SDS011;1910;49.042;9.028;2023-02-28T15:59:19;16.45;;;9.32;;
3789;SDS011;1910;49.042;9.028;2023-02-28T16:04:54;19.52;;;10.80;;
3789;SDS011;1910;49.042;9.028;2023-02-28T16:07:32;15.70;;;9.48;;
3789;SDS011;1910;49.042;9.028;2023-02-28T16:09:59;13.95;;;9.80;;
3789;SDS011;1910;49.042;9.028;2023-02-28T16:12:26;13.90;;;9.63;;
3789;SDS011;1910;49.042;9.028;2023-02-28T16:14:54;18.00;;;11.10;;
3789;SDS011;1910;49.042;9.028;2023-02-28T16:17:24;16.33;;;10.00;;
3789;SDS011;1910;49.042;9.028;2023-02-28T16:19:52;23.02;;;10.32;;
3789;SDS011;1910;49.042;9.028;2023-02-28T16:22:18;17.05;;;9.70;;
3789;SDS011;1910;49.042;9.028;2023-02-28T16:24:44;15.13;;;9.80;;
3789;SDS011;1910;49.042;9.028;2023-02-28T16:27:20;16.13;;;10.00;;
3789;SDS011;1910;49.042;9.028;2023-02-28T16:29:51;17.65;;;10.18;;
3789;SDS011;1910;49.042;9.028;2023-02-28T16:32:17;16.57;;;9.97;;
3789;SDS011;1910;49.042;9.028;2023-02-28T16:34:43;15.10;;;9.63;;
3789;SDS011;1910;49.042;9.028;2023-02-28T16:37:16;18.63;;;11.10;;
3789;SDS011;1910;49.042;9.028;2023-02-28T16:39:43;14.40;;;9.40;;
3789;SDS011;1910;49.042;9.028;2023-02-28T16:42:27;18.63;;;11.55;;
3789;SDS011;1910;49.042;9.028;2023-02-28T16:44:54;21.67;;;11.88;;
3789;SDS011;1910;49.042;9.028;2023-02-28T16:47:20;17.02;;;10.32;;
3789;SDS011;1910;49.042;9.028;2023-02-28T16:49:46;15.88;;;9.55;;
3789;SDS011;1910;49.042;9.028;2023-02-28T16:52:12;16.83;;;9.60;;
3789;SDS011;1910;49.042;9.028;2023-02-28T16:54:39;18.75;;;10.85;;
3789;SDS011;1910;49.042;9.028;2023-02-28T16:57:06;24.00;;;10.27;;
3789;SDS011;1910;49.042;9.028;2023-02-28T16:59:40;25.75;;;13.68;;
3789;SDS011;1910;49.042;9.028;2023-02-28T17:02:10;23.23;;;14.30;;
3789;SDS011;1910;49.042;9.028;2023-02-28T17:04:46;39.13;;;19.00;;
3789;SDS011;1910;49.042;9.028;2023-02-28T17:07:12;23.20;;;12.87;;
3789;SDS011;1910;49.042;9.028;2023-02-28T17:09:41;20.30;;;12.63;;
3789;SDS011;1910;49.042;9.028;2023-02-28T17:12:07;19.27;;;11.13;;
3789;SDS011;1910;49.042;9.028;2023-02-28T17:14:33;29.67;;;12.00;;
3789;SDS011;1910;49.042;9.028;2023-02-28T17:16:59;22.57;;;12.23;;
3789;SDS011;1910;49.042;9.028;2023-02-28T17:19:24;25.20;;;12.23;;
3789;SDS011;1910;49.042;9.028;2023-02-28T17:21:50;21.43;;;12.90;;
3789;SDS011;1910;49.042;9.028;2023-02-28T17:24:15;20.73;;;12.17;;
3789;SDS011;1910;49.042;9.028;2023-02-28T17:26:41;19.90;;;11.70;;
3789;SDS011;1910;49.042;9.028;2023-02-28T17:29:25;26.98;;;18.83;;